Time;durP1;ratioP1;P1;durP2;ratioP2;P2;SDS_P1;SDS_P2;PMS_P1;PMS_P2;Temp;Humidity;BMP_temperature;BMP_pressure;BME280_temperature;BME280_humidity;BME280_pressure;Samples;Min_cycle;Max_cycle;Signal;HPM_P1;HPM_P2
2020/12/17 00:00:18;;;;;;;4.47;3.60;;;19.90;53.20;;;;;;5062895;28;20475;-67
2020/12/17 00:02:44;;;;;;;4.07;3.77;;;19.90;53.20;;;;;;5067611;28;20504;-67
2020/12/17 00:05:11;;;;;;;4.87;4.37;;;19.80;53.10;;;;;;5086899;28;20474;-67
2020/12/17 00:07:37;;;;;;;4.80;4.37;;;19.90;53.20;;;;;;5066208;28;20480;-67
2020/12/17 00:10:05;;;;;;;5.27;4.40;;;19.90;53.20;;;;;;5061465;28;20942;-67
2020/12/17 00:12:34;;;;;;;4.53;4.13;;;19.90;53.20;;;;;;5043972;28;20496;-66
2020/12/17 00:15:00;;;;;;;4.93;4.53;;;19.90;53.20;;;;;;5055713;28;20505;-67
2020/12/17 00:17:26;;;;;;;4.03;3.67;;;19.90;53.20;;;;;;5071327;28;20477;-67
2020/12/17 00:19:52;;;;;;;3.97;3.67;;;19.90;53.10;;;;;;5061812;28;20522;-68
2020/12/17 00:22:19;;;;;;;3.60;3.30;;;19.90;53.10;;;;;;5060795;28;20476;-67
2020/12/17 00:24:45;;;;;;;4.80;4.30;;;19.90;53.20;;;;;;5063164;28;20922;-67
2020/12/17 00:27:12;;;;;;;4.13;3.83;;;19.90;53.00;;;;;;5073530;28;20852;-66
2020/12/17 00:29:38;;;;;;;3.43;3.13;;;20.00;52.90;;;;;;5044749;28;20503;-66
2020/12/17 00:32:04;;;;;;;3.50;3.30;;;20.00;52.70;;;;;;5067191;28;20478;-66
2020/12/17 00:34:30;;;;;;;4.20;3.90;;;20.10;53.40;;;;;;5062350;28;20463;-67
2020/12/17 00:36:56;;;;;;;4.30;4.10;;;20.10;52.50;;;;;;5076684;28;20473;-67
2020/12/17 00:39:23;;;;;;;3.83;3.63;;;20.10;52.40;;;;;;5069759;28;20488;-68
2020/12/17 00:41:50;;;;;;;4.10;3.80;;;20.20;52.40;;;;;;5066064;28;20477;-67
2020/12/17 00:44:16;;;;;;;3.80;3.60;;;20.20;52.40;;;;;;5075681;27;20484;-66
2020/12/17 00:46:42;;;;;;;4.20;3.80;;;20.20;52.40;;;;;;5058425;28;20495;-67
2020/12/17 00:49:08;;;;;;;3.97;3.67;;;20.10;52.30;;;;;;5048860;28;20501;-66
2020/12/17 00:51:34;;;;;;;3.93;3.73;;;20.10;52.50;;;;;;5049478;28;20498;-67
2020/12/17 00:54:00;;;;;;;3.63;3.40;;;20.10;52.70;;;;;;5049616;28;20469;-67
2020/12/17 00:56:27;;;;;;;3.90;3.60;;;20.00;52.70;;;;;;5018907;28;20482;-67
2020/12/17 00:58:53;;;;;;;4.57;3.80;;;20.00;52.60;;;;;;5035304;28;21005;-68
2020/12/17 01:01:19;;;;;;;4.30;4.00;;;20.00;52.70;;;;;;5039997;28;21276;-66
2020/12/17 01:03:46;;;;;;;4.90;4.50;;;20.00;52.70;;;;;;5037323;28;21097;-66
2020/12/17 01:06:12;;;;;;;4.70;4.40;;;20.00;52.70;;;;;;5039581;28;20477;-66
2020/12/17 01:08:38;;;;;;;4.70;4.30;;;20.00;52.70;;;;;;5030267;28;20528;-67
2020/12/17 01:11:04;;;;;;;4.17;3.87;;;19.90;52.60;;;;;;5047872;28;20486;-66
2020/12/17 01:13:31;;;;;;;4.40;4.00;;;19.90;52.60;;;;;;5037624;28;20489;-67
2020/12/17 01:15:57;;;;;;;3.97;3.67;;;19.90;52.60;;;;;;5050272;28;20993;-68
2020/12/17 01:18:23;;;;;;;3.63;3.37;;;20.00;52.70;;;;;;5040535;28;21029;-66
2020/12/17 01:20:49;;;;;;;7.40;3.40;;;19.90;52.70;;;;;;5042396;28;21044;-66
2020/12/17 01:23:15;;;;;;;3.97;3.77;;;20.00;52.60;;;;;;5062963;28;21112;-66
2020/12/17 01:25:42;;;;;;;3.70;3.47;;;20.00;52.60;;;;;;5064747;28;20871;-66
2020/12/17 01:28:11;;;;;;;4.73;4.30;;;20.10;52.50;;;;;;5070620;28;20478;-67
2020/12/17 01:30:38;;;;;;;4.17;3.80;;;20.10;52.40;;;;;;5056477;28;20485;-67
2020/12/17 01:33:04;;;;;;;3.47;3.27;;;20.10;52.20;;;;;;5048050;28;20466;-67
2020/12/17 01:35:30;;;;;;;4.20;3.83;;;20.10;52.20;;;;;;5068344;28;20474;-67
2020/12/17 01:37:57;;;;;;;3.90;3.60;;;20.10;52.30;;;;;;5058516;28;20480;-67
2020/12/17 01:40:23;;;;;;;5.03;4.50;;;20.10;52.40;;;;;;5039764;28;20473;-66
2020/12/17 01:42:49;;;;;;;4.00;3.70;;;20.10;52.40;;;;;;5072484;28;20542;-66
2020/12/17 01:45:15;;;;;;;3.47;3.03;;;20.10;52.50;;;;;;5051938;28;20503;-67
2020/12/17 01:47:42;;;;;;;3.93;3.53;;;20.00;52.40;;;;;;5049025;28;20492;-67
2020/12/17 01:50:08;;;;;;;3.83;3.53;;;20.00;52.40;;;;;;5061270;28;20481;-66
2020/12/17 01:52:34;;;;;;;4.23;3.93;;;20.00;52.40;;;;;;5071219;28;20481;-66
2020/12/17 01:55:01;;;;;;;4.27;3.97;;;20.00;52.40;;;;;;5043251;28;20509;-67
2020/12/17 01:57:30;;;;;;;3.77;3.50;;;20.00;52.40;;;;;;5067919;28;20579;-67
2020/12/17 01:59:57;;;;;;;4.20;3.90;;;20.00;52.40;;;;;;5070670;28;20539;-67
2020/12/17 02:02:23;;;;;;;3.90;3.60;;;20.00;52.40;;;;;;5065949;28;20494;-67
2020/12/17 02:04:50;;;;;;;3.63;3.33;;;20.00;52.40;;;;;;5039493;28;20492;-68
2020/12/17 02:07:16;;;;;;;4.00;3.70;;;20.00;52.40;;;;;;5068582;28;20473;-66
2020/12/17 02:09:42;;;;;;;4.10;3.80;;;20.10;52.30;;;;;;5074215;28;21126;-67
2020/12/17 02:12:08;;;;;;;3.10;2.90;;;20.10;52.30;;;;;;5053651;28;20489;-66
2020/12/17 02:14:34;;;;;;;2.87;2.67;;;20.10;52.20;;;;;;5070270;28;20490;-66
2020/12/17 02:17:00;;;;;;;3.73;3.47;;;20.10;52.20;;;;;;5068533;28;20477;-67
2020/12/17 02:19:27;;;;;;;4.10;3.80;;;20.10;52.00;;;;;;5079289;28;20481;-66
2020/12/17 02:21:55;;;;;;;3.27;3.10;;;20.10;52.00;;;;;;5079448;28;20566;-67
2020/12/17 02:24:22;;;;;;;2.87;2.77;;;20.20;52.00;;;;;;5072943;28;20534;-66
2020/12/17 02:26:48;;;;;;;3.70;3.43;;;20.20;51.90;;;;;;5057877;28;20518;-67
2020/12/17 02:29:14;;;;;;;4.10;3.70;;;20.20;51.80;;;;;;5038278;28;21009;-66
2020/12/17 02:31:40;;;;;;;3.70;3.50;;;20.20;51.80;;;;;;5052233;28;20508;-66
2020/12/17 02:34:06;;;;;;;3.30;3.10;;;20.20;52.00;;;;;;5026736;28;20501;-66
2020/12/17 02:36:32;;;;;;;4.97;3.73;;;20.10;52.00;;;;;;5051930;28;20492;-66
2020/12/17 02:38:59;;;;;;;3.43;3.23;;;20.10;51.90;;;;;;5052879;28;20557;-66
2020/12/17 02:41:26;;;;;;;3.90;3.60;;;20.10;52.10;;;;;;5050538;28;20477;-66
2020/12/17 02:43:52;;;;;;;3.73;3.43;;;20.10;52.00;;;;;;5042473;28;20478;-67
2020/12/17 02:46:19;;;;;;;2.80;2.70;;;20.10;52.00;;;;;;5022446;28;20878;-66
2020/12/17 02:48:49;;;;;;;3.40;3.10;;;20.10;52.10;;;;;;5051687;28;21055;-66
2020/12/17 02:51:15;;;;;;;3.23;2.93;;;20.10;52.00;;;;;;5051088;28;20485;-66
2020/12/17 02:53:41;;;;;;;3.30;3.10;;;20.10;52.00;;;;;;5038097;28;20508;-67
2020/12/17 02:56:07;;;;;;;6.20;3.20;;;20.10;52.00;;;;;;5033987;28;20490;-67
2020/12/17 02:58:34;;;;;;;3.20;3.10;;;20.10;52.00;;;;;;5057513;28;20477;-66
2020/12/17 03:01:00;;;;;;;4.50;4.10;;;20.10;52.00;;;;;;5055780;28;20997;-66
2020/12/17 03:03:26;;;;;;;7.10;4.10;;;20.10;52.00;;;;;;5041808;28;21146;-67
2020/12/17 03:05:52;;;;;;;2.80;2.70;;;20.10;52.10;;;;;;5044752;28;21077;-66
2020/12/17 03:08:18;;;;;;;3.53;3.20;;;20.00;52.00;;;;;;5055335;28;20985;-66
2020/12/17 03:10:45;;;;;;;2.97;2.83;;;20.10;52.10;;;;;;5058757;28;20851;-66
2020/12/17 03:13:11;;;;;;;4.23;3.50;;;20.10;52.00;;;;;;5061325;28;21029;-67
2020/12/17 03:15:38;;;;;;;2.60;2.37;;;20.10;52.00;;;;;;5070741;28;20508;-67
2020/12/17 03:18:04;;;;;;;3.17;2.97;;;20.10;52.00;;;;;;5069883;28;20485;-66
2020/12/17 03:20:31;;;;;;;3.07;2.83;;;20.10;51.90;;;;;;5073865;28;21504;-67
2020/12/17 03:22:57;;;;;;;3.33;3.10;;;20.20;51.90;;;;;;5058323;28;20497;-66
2020/12/17 03:25:23;;;;;;;3.53;3.33;;;20.10;51.80;;;;;;5067385;28;20482;-67
2020/12/17 03:27:49;;;;;;;3.00;2.80;;;20.10;51.70;;;;;;5034121;28;20480;-66
2020/12/17 03:30:15;;;;;;;3.30;3.10;;;20.10;51.70;;;;;;5018751;28;20525;-67
2020/12/17 03:32:42;;;;;;;3.10;2.80;;;20.10;51.80;;;;;;5061967;28;20555;-66
2020/12/17 03:35:08;;;;;;;3.10;2.83;;;20.10;51.90;;;;;;5069678;28;20492;-66
2020/12/17 03:37:35;;;;;;;2.97;2.77;;;20.10;51.90;;;;;;5065973;28;20478;-67
2020/12/17 03:40:01;;;;;;;3.20;3.10;;;20.10;51.90;;;;;;5066091;28;20532;-66
2020/12/17 03:42:27;;;;;;;2.40;2.30;;;20.10;51.90;;;;;;5061400;28;20493;-66
2020/12/17 03:44:53;;;;;;;3.20;3.00;;;20.10;51.90;;;;;;5059743;28;20581;-67
2020/12/17 03:47:19;;;;;;;3.10;2.90;;;20.10;52.00;;;;;;5038711;28;20578;-66
2020/12/17 03:49:46;;;;;;;3.47;3.17;;;20.10;51.90;;;;;;5018226;28;20493;-67
2020/12/17 03:52:12;;;;;;;3.70;3.50;;;20.10;51.90;;;;;;5015530;28;20542;-68
2020/12/17 03:54:39;;;;;;;2.77;2.63;;;20.10;51.90;;;;;;5048238;28;20470;-66
2020/12/17 03:57:05;;;;;;;3.30;3.20;;;20.10;51.90;;;;;;5051498;28;20482;-66
2020/12/17 03:59:31;;;;;;;3.07;2.97;;;20.10;52.00;;;;;;5039768;28;20501;-66
2020/12/17 04:01:57;;;;;;;3.23;2.70;;;20.00;51.80;;;;;;5014956;28;20489;-68
2020/12/17 04:04:23;;;;;;;3.40;3.10;;;20.00;51.80;;;;;;5038029;28;20483;-67
2020/12/17 04:06:50;;;;;;;3.33;3.17;;;20.00;51.80;;;;;;5043626;28;20478;-66
2020/12/17 04:09:16;;;;;;;2.60;2.50;;;20.10;51.80;;;;;;5014515;28;20487;-66
2020/12/17 04:11:42;;;;;;;3.30;3.10;;;20.10;51.70;;;;;;5035336;28;20498;-67
2020/12/17 04:17:30;;;;;;;3.03;2.73;;;20.10;51.60;;;;;;5023302;28;20874;-66
2020/12/17 04:19:56;;;;;;;3.23;2.80;;;20.10;51.60;;;;;;5051084;28;20509;-66
2020/12/17 04:22:23;;;;;;;3.07;2.87;;;20.20;51.30;;;;;;5047308;28;20490;-67
2020/12/17 04:24:50;;;;;;;2.57;2.47;;;20.20;51.10;;;;;;5038716;28;20547;-66
2020/12/17 04:27:16;;;;;;;3.47;3.27;;;20.30;51.10;;;;;;5045668;28;20481;-67
2020/12/17 04:29:42;;;;;;;3.70;3.40;;;20.30;51.00;;;;;;5030841;28;20500;-67
2020/12/17 04:32:08;;;;;;;3.43;3.23;;;20.40;51.00;;;;;;5031410;28;20481;-66
2020/12/17 04:34:34;;;;;;;3.37;3.17;;;20.40;51.00;;;;;;5031946;28;20492;-66
2020/12/17 04:37:00;;;;;;;3.73;3.20;;;20.40;50.90;;;;;;5053990;28;20470;-67
2020/12/17 04:39:27;;;;;;;3.10;2.80;;;20.30;51.00;;;;;;5040289;28;20497;-66
2020/12/17 04:41:53;;;;;;;3.27;3.03;;;20.40;51.00;;;;;;5046335;28;20474;-66
2020/12/17 04:44:20;;;;;;;3.03;2.80;;;20.30;51.00;;;;;;5042145;28;20470;-66
2020/12/17 04:46:50;;;;;;;3.57;3.27;;;20.30;51.10;;;;;;5044703;28;20488;-66
2020/12/17 04:49:18;;;;;;;4.60;3.20;;;20.30;51.10;;;;;;5038592;28;20490;-67
2020/12/17 04:51:44;;;;;;;4.00;3.60;;;20.20;51.20;;;;;;5039213;28;20489;-66
2020/12/17 04:54:10;;;;;;;3.70;3.30;;;20.20;51.30;;;;;;5023641;28;20479;-67
2020/12/17 04:56:38;;;;;;;3.07;2.87;;;20.10;51.40;;;;;;5048733;28;20479;-67
2020/12/17 04:59:04;;;;;;;4.20;3.80;;;20.20;51.70;;;;;;5050823;28;20470;-67
2020/12/17 05:01:32;;;;;;;3.50;3.30;;;20.10;51.60;;;;;;5035121;28;20497;-67
2020/12/17 05:03:58;;;;;;;4.53;4.13;;;20.10;51.60;;;;;;5046287;28;20485;-67
2020/12/17 05:06:25;;;;;;;3.67;3.47;;;20.10;51.60;;;;;;5051465;28;20513;-67
2020/12/17 05:08:51;;;;;;;3.53;3.33;;;20.10;51.70;;;;;;5034040;28;20497;-67
2020/12/17 05:11:17;;;;;;;3.33;3.03;;;20.10;51.50;;;;;;5036077;28;20477;-67
2020/12/17 05:13:45;;;;;;;3.83;3.53;;;20.20;51.50;;;;;;5035448;28;20553;-67
2020/12/17 05:16:11;;;;;;;3.63;3.43;;;20.20;51.40;;;;;;5048397;28;20490;-66
2020/12/17 05:18:37;;;;;;;3.20;3.00;;;20.20;51.20;;;;;;5031491;28;20506;-67
2020/12/17 05:21:03;;;;;;;3.27;2.97;;;20.30;51.20;;;;;;5047283;28;20483;-67
2020/12/17 05:23:30;;;;;;;3.73;3.43;;;20.30;51.10;;;;;;5036191;28;20469;-66
2020/12/17 05:25:56;;;;;;;3.27;3.07;;;20.30;51.10;;;;;;5050274;28;20477;-66
2020/12/17 05:28:22;;;;;;;4.43;3.30;;;20.30;51.10;;;;;;5049299;28;20485;-67
2020/12/17 05:30:49;;;;;;;3.20;3.00;;;20.30;51.00;;;;;;5050431;28;20548;-66
2020/12/17 05:33:16;;;;;;;3.40;3.13;;;20.30;51.00;;;;;;5035823;28;20478;-67
2020/12/17 05:35:42;;;;;;;3.57;3.27;;;20.40;51.00;;;;;;5032424;28;20473;-66
2020/12/17 05:38:09;;;;;;;3.57;3.37;;;20.40;51.00;;;;;;5024700;28;20490;-67
2020/12/17 05:40:36;;;;;;;3.10;2.90;;;20.40;50.80;;;;;;5049799;28;21606;-66
2020/12/17 05:43:03;;;;;;;3.77;3.53;;;20.40;50.90;;;;;;5037276;28;20544;-66
2020/12/17 05:45:30;;;;;;;3.37;3.17;;;20.40;51.00;;;;;;5041269;28;20490;-67
2020/12/17 05:48:10;;;;;;;10.83;3.67;;;20.40;50.90;;;;;;5057135;28;20500;-66
2020/12/17 05:50:47;;;;;;;4.57;4.17;;;20.40;50.90;;;;;;5032789;28;20548;-67
2020/12/17 05:53:13;;;;;;;4.60;4.20;;;20.30;50.90;;;;;;5010024;28;20482;-67
2020/12/17 05:55:39;;;;;;;4.30;3.70;;;20.30;51.10;;;;;;5064345;28;20490;-67
2020/12/17 05:58:06;;;;;;;3.77;3.57;;;20.30;51.10;;;;;;5037699;28;20501;-67
2020/12/17 06:00:32;;;;;;;3.67;3.17;;;20.20;51.10;;;;;;5049766;28;20490;-67
2020/12/17 06:02:58;;;;;;;5.13;4.00;;;20.20;51.10;;;;;;5050649;28;20551;-66
2020/12/17 06:05:25;;;;;;;3.50;3.20;;;20.20;51.10;;;;;;5030288;28;20470;-67
2020/12/17 06:07:52;;;;;;;3.73;3.43;;;20.20;51.10;;;;;;5008624;28;20493;-66
2020/12/17 06:10:19;;;;;;;4.40;4.10;;;20.20;51.00;;;;;;5036991;28;20489;-66
2020/12/17 06:12:46;;;;;;;3.63;3.33;;;20.20;51.10;;;;;;5019926;28;20478;-66
2020/12/17 06:15:15;;;;;;;4.00;3.70;;;20.20;51.00;;;;;;5010325;28;20493;-66
2020/12/17 06:17:43;;;;;;;3.53;3.23;;;20.30;51.00;;;;;;5003183;28;20487;-66
2020/12/17 06:20:09;;;;;;;4.37;3.97;;;20.30;51.00;;;;;;5046050;28;20474;-67
2020/12/17 06:22:36;;;;;;;4.07;3.60;;;20.30;51.30;;;;;;5015421;28;20488;-66
2020/12/17 06:25:02;;;;;;;4.33;3.97;;;20.30;51.20;;;;;;5003935;28;21124;-67
2020/12/17 06:27:30;;;;;;;3.30;3.10;;;20.30;51.20;;;;;;5038111;28;20493;-67
2020/12/17 06:30:01;;;;;;;4.07;3.70;;;20.30;51.00;;;;;;5042025;28;20470;-66
2020/12/17 06:32:28;;;;;;;4.50;3.60;;;20.40;51.10;;;;;;5039322;28;20651;-69
2020/12/17 06:34:54;;;;;;;4.53;4.13;;;20.40;53.70;;;;;;5029059;28;20575;-68
2020/12/17 06:37:20;;;;;;;4.57;3.93;;;20.60;53.60;;;;;;5019652;28;20511;-67
2020/12/17 06:39:47;;;;;;;4.67;4.13;;;20.80;53.90;;;;;;5030858;28;20478;-68
2020/12/17 06:42:32;;;;;;;5.60;5.10;;;20.80;55.90;;;;;;5032192;28;20489;-68
2020/12/17 06:44:58;;;;;;;6.00;5.50;;;20.90;55.80;;;;;;5040834;28;20553;-69
2020/12/17 06:47:27;;;;;;;10.10;5.53;;;20.90;54.20;;;;;;5045294;28;20860;-67
2020/12/17 06:49:53;;;;;;;6.20;5.20;;;20.90;53.50;;;;;;5048996;28;21648;-67
2020/12/17 06:52:19;;;;;;;6.97;5.53;;;21.00;53.20;;;;;;5051971;28;20472;-67
2020/12/17 06:54:46;;;;;;;6.60;5.23;;;21.00;52.90;;;;;;5053290;28;20460;-68
2020/12/17 06:57:13;;;;;;;5.03;4.63;;;21.10;52.60;;;;;;5019361;28;20481;-68
2020/12/17 06:59:40;;;;;;;5.30;4.90;;;21.10;52.20;;;;;;5041221;28;20481;-67
2020/12/17 07:02:06;;;;;;;5.27;4.40;;;21.10;51.60;;;;;;5035954;28;20482;-67
2020/12/17 07:04:40;;;;;;;5.87;5.27;;;21.00;51.40;;;;;;5052121;28;20493;-67
2020/12/17 07:07:16;;;;;;;4.97;4.50;;;20.90;51.20;;;;;;5051334;28;21239;-67
2020/12/17 07:09:44;;;;;;;7.67;5.23;;;20.80;50.90;;;;;;5051242;28;20486;-67
2020/12/17 07:12:12;;;;;;;5.10;4.70;;;20.80;50.90;;;;;;5049475;28;20493;-67
2020/12/17 07:14:39;;;;;;;7.10;4.47;;;20.70;50.90;;;;;;5026782;28;20489;-67
2020/12/17 07:17:06;;;;;;;4.57;4.17;;;20.50;51.00;;;;;;5038225;28;20915;-67
2020/12/17 07:19:38;;;;;;;6.53;3.90;;;20.50;51.10;;;;;;5029244;28;20485;-67
2020/12/17 07:22:05;;;;;;;4.93;4.40;;;20.50;51.30;;;;;;5051246;28;20582;-67
2020/12/17 07:24:33;;;;;;;4.97;4.50;;;20.50;50.80;;;;;;5041277;28;20878;-68
2020/12/17 07:27:01;;;;;;;5.23;4.70;;;20.60;50.70;;;;;;5037730;28;20512;-68
2020/12/17 07:29:50;;;;;;;5.07;4.53;;;20.60;50.60;;;;;;5002869;28;20489;-67
2020/12/17 07:32:32;;;;;;;5.47;5.00;;;20.60;50.70;;;;;;5027981;28;20553;-67
2020/12/17 07:35:01;;;;;;;3.83;3.50;;;20.60;50.70;;;;;;5048566;28;20916;-68
2020/12/17 07:37:37;;;;;;;4.10;3.80;;;20.60;50.70;;;;;;5049723;28;20566;-68
2020/12/17 07:40:06;;;;;;;4.13;3.73;;;20.60;50.90;;;;;;5048954;28;20551;-67
2020/12/17 07:42:32;;;;;;;5.30;4.80;;;20.50;50.90;;;;;;5045529;28;20478;-66
2020/12/17 07:44:59;;;;;;;4.50;4.10;;;20.50;50.90;;;;;;5047524;28;20527;-68
2020/12/17 07:47:25;;;;;;;4.60;4.20;;;20.40;51.00;;;;;;5050418;28;20495;-66
2020/12/17 07:49:51;;;;;;;4.50;3.97;;;20.40;51.10;;;;;;5049881;28;20475;-67
2020/12/17 07:52:31;;;;;;;4.53;3.43;;;20.40;51.20;;;;;;5049557;28;20492;-67
2020/12/17 07:54:57;;;;;;;3.40;3.20;;;20.40;51.20;;;;;;5048901;28;20554;-67
2020/12/17 07:57:23;;;;;;;2.90;2.80;;;20.40;51.20;;;;;;5050729;28;20490;-67
2020/12/17 07:59:49;;;;;;;3.77;3.47;;;20.30;51.20;;;;;;5049660;28;20473;-68
2020/12/17 08:02:16;;;;;;;2.90;2.70;;;20.30;51.30;;;;;;5050666;28;20483;-68
2020/12/17 08:04:49;;;;;;;3.47;2.90;;;20.30;51.40;;;;;;5048458;28;20489;-68
2020/12/17 08:07:19;;;;;;;3.77;3.57;;;20.30;51.40;;;;;;5058114;28;20523;-67
2020/12/17 08:09:51;;;;;;;4.37;3.10;;;20.30;51.50;;;;;;5059456;28;20485;-67
2020/12/17 08:12:17;;;;;;;3.50;3.30;;;20.30;51.50;;;;;;5049594;28;20496;-67
2020/12/17 08:14:43;;;;;;;3.27;3.07;;;20.30;51.60;;;;;;5039804;28;20474;-67
2020/12/17 08:17:09;;;;;;;3.63;3.33;;;20.30;51.60;;;;;;5055714;28;20486;-67
2020/12/17 08:19:36;;;;;;;3.63;3.40;;;20.30;51.60;;;;;;5071729;28;20485;-67
2020/12/17 08:22:03;;;;;;;3.00;2.80;;;20.30;51.70;;;;;;5016864;28;20919;-67
2020/12/17 08:24:32;;;;;;;3.30;3.00;;;20.30;51.70;;;;;;5030218;28;20513;-67
2020/12/17 08:26:58;;;;;;;2.83;2.63;;;20.20;51.70;;;;;;5056396;28;20486;-68
2020/12/17 08:29:24;;;;;;;3.37;3.17;;;20.20;51.90;;;;;;5044242;28;20487;-67
2020/12/17 08:31:51;;;;;;;5.20;2.97;;;20.20;52.00;;;;;;5044944;28;20486;-67
2020/12/17 08:34:18;;;;;;;3.10;2.93;;;20.20;52.10;;;;;;5070114;28;20573;-67
2020/12/17 08:36:45;;;;;;;2.80;2.70;;;20.20;52.00;;;;;;5034192;28;20495;-68
2020/12/17 08:39:12;;;;;;;3.20;3.00;;;20.20;52.00;;;;;;5060387;28;21087;-67
2020/12/17 08:41:40;;;;;;;2.80;2.60;;;20.10;52.00;;;;;;5074443;28;20481;-68
2020/12/17 08:44:06;;;;;;;2.80;2.60;;;20.10;52.10;;;;;;5047128;28;20486;-68
2020/12/17 08:46:34;;;;;;;3.53;3.30;;;20.10;52.20;;;;;;5043308;28;20486;-67
2020/12/17 08:49:01;;;;;;;3.03;2.80;;;20.10;52.20;;;;;;5053764;28;20478;-67
2020/12/17 08:51:27;;;;;;;2.93;2.73;;;20.20;52.00;;;;;;5051002;28;20482;-68
2020/12/17 08:53:54;;;;;;;3.60;3.40;;;20.20;52.20;;;;;;5063459;28;20485;-67
2020/12/17 08:56:21;;;;;;;2.80;2.70;;;20.20;52.00;;;;;;5059799;28;20907;-69
2020/12/17 08:58:49;;;;;;;2.73;2.53;;;20.30;51.90;;;;;;5050653;28;20489;-68
2020/12/17 09:01:16;;;;;;;3.47;3.20;;;20.30;51.80;;;;;;5047256;28;20482;-68
2020/12/17 09:03:43;;;;;;;3.07;2.77;;;20.30;51.80;;;;;;5039032;28;20478;-68
2020/12/17 09:06:09;;;;;;;3.30;3.10;;;20.30;51.70;;;;;;5042990;28;20486;-67
2020/12/17 09:08:36;;;;;;;3.77;3.57;;;20.40;51.60;;;;;;5061866;28;20539;-67
2020/12/17 09:11:02;;;;;;;3.10;2.80;;;20.40;51.60;;;;;;5054725;28;20477;-67
2020/12/17 09:13:29;;;;;;;3.80;3.50;;;20.40;51.50;;;;;;5009041;28;21013;-67
2020/12/17 09:15:59;;;;;;;2.83;2.63;;;20.40;51.50;;;;;;5028382;28;21017;-68
2020/12/17 09:18:26;;;;;;;2.90;2.80;;;20.40;51.50;;;;;;5049465;28;20482;-68
2020/12/17 09:21:09;;;;;;;2.73;2.53;;;20.40;51.40;;;;;;5052022;28;21680;-67
2020/12/17 09:23:35;;;;;;;2.90;2.70;;;20.50;51.40;;;;;;5034978;28;20501;-68
2020/12/17 09:26:14;;;;;;;3.37;2.80;;;20.50;51.40;;;;;;5048166;28;20561;-68
2020/12/17 09:28:57;;;;;;;3.87;2.70;;;20.50;51.40;;;;;;5072064;28;20495;-68
2020/12/17 09:31:28;;;;;;;2.90;2.70;;;20.50;51.30;;;;;;5052889;28;20594;-67
2020/12/17 09:34:18;;;;;;;2.67;2.50;;;20.50;51.30;;;;;;5053060;28;20684;-68
2020/12/17 09:36:45;;;;;;;2.13;2.03;;;20.50;51.40;;;;;;5067490;28;21020;-67
2020/12/17 09:39:13;;;;;;;2.70;2.53;;;20.50;51.50;;;;;;5068255;28;20536;-67
2020/12/17 09:41:50;;;;;;;2.70;2.60;;;20.50;51.50;;;;;;5073714;28;20511;-67
2020/12/17 09:44:26;;;;;;;2.60;2.20;;;20.50;51.50;;;;;;5050362;27;20488;-68
2020/12/17 09:46:52;;;;;;;2.80;2.60;;;20.50;51.50;;;;;;5063586;28;20567;-68
2020/12/17 09:49:25;;;;;;;3.33;2.93;;;20.50;51.60;;;;;;5070525;28;20473;-67
2020/12/17 09:52:06;;;;;;;2.30;2.20;;;20.50;51.50;;;;;;5050177;27;20491;-67
2020/12/17 09:54:32;;;;;;;3.27;2.90;;;20.50;51.60;;;;;;5046061;28;20484;-67
2020/12/17 09:57:07;;;;;;;2.73;2.53;;;20.50;51.60;;;;;;5024887;28;20489;-67
2020/12/17 09:59:33;;;;;;;2.60;2.50;;;20.50;51.50;;;;;;5044611;28;20489;-68
2020/12/17 10:02:00;;;;;;;2.03;1.93;;;20.50;51.50;;;;;;5028338;28;20494;-68
2020/12/17 10:04:26;;;;;;;3.17;2.93;;;20.50;51.50;;;;;;5046667;28;20860;-68
2020/12/17 10:06:52;;;;;;;3.13;2.93;;;20.50;51.60;;;;;;5049129;28;20486;-68
2020/12/17 10:09:19;;;;;;;3.03;2.80;;;20.50;51.60;;;;;;5036001;28;20611;-68
2020/12/17 10:11:48;;;;;;;3.40;3.10;;;20.50;51.70;;;;;;5024739;28;20559;-68
2020/12/17 10:14:15;;;;;;;2.90;2.80;;;20.50;51.70;;;;;;5025265;28;20536;-68
2020/12/17 10:16:42;;;;;;;2.00;1.90;;;20.50;51.70;;;;;;5048869;28;20488;-68
2020/12/17 10:19:08;;;;;;;3.50;2.20;;;20.50;51.70;;;;;;5047889;28;20475;-68
2020/12/17 10:21:35;;;;;;;3.10;3.00;;;20.50;51.70;;;;;;5051476;28;21562;-68
2020/12/17 10:24:01;;;;;;;3.33;3.13;;;20.60;51.80;;;;;;5045676;28;20485;-68
2020/12/17 10:26:27;;;;;;;2.87;2.67;;;20.60;51.80;;;;;;5032687;28;20485;-68
2020/12/17 10:28:53;;;;;;;2.90;2.70;;;20.50;51.60;;;;;;5014556;28;20547;-68
2020/12/17 10:31:20;;;;;;;2.80;2.70;;;20.50;51.60;;;;;;5017683;28;20489;-68
2020/12/17 10:33:46;;;;;;;2.30;2.20;;;20.60;51.60;;;;;;5038686;28;20477;-69
2020/12/17 10:36:13;;;;;;;2.70;2.60;;;20.60;51.60;;;;;;5048708;28;20486;-69
2020/12/17 10:38:39;;;;;;;2.60;2.40;;;20.60;51.60;;;;;;5050333;28;20478;-69
2020/12/17 10:41:05;;;;;;;2.97;2.87;;;20.60;51.50;;;;;;5047208;28;20496;-68
2020/12/17 10:43:31;;;;;;;2.37;2.27;;;20.60;51.50;;;;;;5036975;28;20480;-68
2020/12/17 10:45:57;;;;;;;3.10;2.90;;;20.60;51.70;;;;;;5036832;28;20482;-67
2020/12/17 10:48:24;;;;;;;2.87;2.67;;;20.60;51.70;;;;;;5050298;28;20470;-68
2020/12/17 10:50:50;;;;;;;2.53;2.43;;;20.60;51.80;;;;;;5046107;28;20551;-67
2020/12/17 10:53:17;;;;;;;2.60;2.07;;;20.50;51.80;;;;;;5039413;28;20498;-68
2020/12/17 10:55:43;;;;;;;2.50;2.30;;;20.50;51.90;;;;;;5048348;28;20501;-67
2020/12/17 10:58:11;;;;;;;3.13;3.03;;;20.50;52.00;;;;;;5020981;28;20558;-68
2020/12/17 11:00:37;;;;;;;2.97;2.87;;;20.50;52.00;;;;;;5042502;28;20486;-67
2020/12/17 11:03:05;;;;;;;2.47;2.27;;;20.40;51.90;;;;;;5042926;28;20504;-67
2020/12/17 11:05:32;;;;;;;3.03;2.73;;;20.40;52.00;;;;;;5048928;28;20576;-66
2020/12/17 11:07:58;;;;;;;2.20;2.10;;;20.40;52.00;;;;;;5035718;28;21437;-68
2020/12/17 11:10:24;;;;;;;2.47;2.03;;;20.40;52.00;;;;;;5031110;28;21008;-68
2020/12/17 11:12:50;;;;;;;2.73;2.63;;;20.40;52.10;;;;;;5014826;28;20896;-66
2020/12/17 11:15:16;;;;;;;2.33;2.23;;;20.40;52.10;;;;;;5042740;28;21479;-67
2020/12/17 11:17:42;;;;;;;2.70;2.60;;;20.40;52.10;;;;;;5014766;28;20549;-68
2020/12/17 11:20:08;;;;;;;2.40;2.30;;;20.40;52.10;;;;;;5050080;28;20496;-68
2020/12/17 11:22:35;;;;;;;2.10;2.00;;;20.40;52.20;;;;;;5012192;28;20482;-67
2020/12/17 11:25:02;;;;;;;2.60;2.50;;;20.40;52.10;;;;;;5057325;28;20484;-68
2020/12/17 11:27:28;;;;;;;2.50;2.30;;;20.40;52.10;;;;;;5051504;28;20486;-68
2020/12/17 11:29:54;;;;;;;2.40;2.30;;;20.50;52.10;;;;;;5051647;28;20485;-67
2020/12/17 11:32:20;;;;;;;2.60;2.50;;;20.50;52.10;;;;;;5026786;28;20478;-68
2020/12/17 11:34:46;;;;;;;2.57;2.47;;;20.50;52.10;;;;;;5045645;28;20535;-68
2020/12/17 11:37:13;;;;;;;2.40;2.30;;;20.50;52.10;;;;;;5051440;28;20517;-68
2020/12/17 11:39:40;;;;;;;2.53;2.43;;;20.50;52.10;;;;;;5053070;28;20627;-68
2020/12/17 11:42:06;;;;;;;3.30;2.80;;;20.40;52.10;;;;;;5050078;28;20497;-67
2020/12/17 11:44:32;;;;;;;2.33;2.23;;;20.40;52.30;;;;;;5035003;28;21472;-67
2020/12/17 11:46:59;;;;;;;1.87;1.77;;;20.40;52.30;;;;;;5052192;28;20515;-68
2020/12/17 11:49:25;;;;;;;2.70;2.60;;;20.30;52.40;;;;;;5039697;28;20504;-67
2020/12/17 11:51:51;;;;;;;2.40;2.20;;;20.30;52.50;;;;;;5029777;28;20556;-68
2020/12/17 11:54:17;;;;;;;2.83;2.73;;;20.30;52.70;;;;;;5002805;28;20482;-68
2020/12/17 11:56:46;;;;;;;2.53;2.40;;;20.30;52.60;;;;;;5022539;28;20478;-68
2020/12/17 11:59:12;;;;;;;2.50;2.40;;;20.30;52.80;;;;;;5043255;28;20485;-67
2020/12/17 12:01:41;;;;;;;2.60;2.50;;;20.20;52.70;;;;;;5067658;28;20484;-67
2020/12/17 12:04:07;;;;;;;2.37;2.27;;;20.30;52.70;;;;;;5048214;27;20631;-67
2020/12/17 12:06:33;;;;;;;2.50;2.30;;;20.30;52.70;;;;;;5060520;28;20849;-68
2020/12/17 12:08:59;;;;;;;2.23;2.10;;;20.30;52.80;;;;;;5068739;28;20496;-68
2020/12/17 12:11:26;;;;;;;2.93;2.73;;;20.30;52.70;;;;;;5072446;28;20485;-67
2020/12/17 12:13:53;;;;;;;2.33;2.23;;;20.30;52.70;;;;;;5075695;28;20476;-67
2020/12/17 12:16:19;;;;;;;2.23;2.13;;;20.30;52.80;;;;;;5071216;28;20481;-67
2020/12/17 12:18:45;;;;;;;2.10;2.00;;;20.20;52.70;;;;;;5073600;27;20471;-68
2020/12/17 12:21:11;;;;;;;1.97;1.87;;;20.30;52.80;;;;;;5067391;28;20477;-68
2020/12/17 12:23:38;;;;;;;2.20;2.10;;;20.30;52.80;;;;;;5059780;27;20493;-68
2020/12/17 12:26:04;;;;;;;2.73;2.50;;;20.30;52.80;;;;;;5061572;28;20488;-68
2020/12/17 12:28:30;;;;;;;2.13;2.03;;;20.30;52.80;;;;;;5064627;28;20538;-67
2020/12/17 12:30:57;;;;;;;2.10;2.10;;;20.30;52.70;;;;;;5052427;28;20491;-67
2020/12/17 12:33:23;;;;;;;1.83;1.73;;;20.30;52.70;;;;;;5072498;28;20489;-68
2020/12/17 12:35:49;;;;;;;1.90;1.80;;;20.30;52.60;;;;;;5084080;28;20492;-68
2020/12/17 12:38:15;;;;;;;1.63;1.63;;;20.40;52.60;;;;;;5051222;28;20473;-67
2020/12/17 12:40:42;;;;;;;1.93;1.83;;;20.40;52.50;;;;;;5065176;27;20506;-67
2020/12/17 12:43:08;;;;;;;1.93;1.83;;;20.40;52.40;;;;;;5082633;28;20918;-68
2020/12/17 12:45:34;;;;;;;1.70;1.60;;;20.40;52.40;;;;;;5072296;28;20471;-67
2020/12/17 12:48:01;;;;;;;1.60;1.50;;;20.40;52.40;;;;;;5077875;28;20500;-68
2020/12/17 12:50:27;;;;;;;1.83;1.63;;;20.40;52.60;;;;;;5057831;28;20493;-67